createdAt,value
2023-02-04T00:00:03.065Z,5.9
2023-02-04T00:15:02.656Z,5.8
2023-02-04T00:30:02.930Z,5.7
2023-02-04T00:45:02.352Z,5.8
2023-02-04T01:00:02.810Z,5.9
2023-02-04T01:15:03.237Z,5.9
2023-02-04T01:30:02.690Z,5.8
2023-02-04T01:45:03.136Z,5.8
2023-02-04T02:00:02.687Z,5.7
2023-02-04T02:15:03.005Z,5.6
2023-02-04T02:30:02.435Z,5.6
2023-02-04T02:45:02.864Z,5.6
2023-02-04T03:00:02.268Z,5.6
2023-02-04T03:15:02.736Z,5.6
2023-02-04T03:30:03.183Z,5.6
2023-02-04T03:45:02.729Z,5.4
2023-02-04T04:00:03.051Z,5.4
2023-02-04T04:15:02.675Z,5.4
2023-02-04T04:30:02.905Z,5.3
2023-02-04T04:45:02.316Z,5.1
2023-02-04T05:00:02.778Z,4.8
2023-02-04T05:15:03.225Z,4.2
2023-02-04T05:30:02.750Z,3.9
2023-02-04T05:45:03.067Z,3.6
2023-02-04T06:00:02.500Z,3.4
2023-02-04T06:15:02.944Z,3.3
2023-02-04T06:30:02.373Z,3.1
2023-02-04T06:45:02.826Z,2.8
2023-02-04T07:00:02.254Z,2.5
2023-02-04T07:15:02.770Z,2.4
2023-02-04T07:30:02.159Z,2.4
2023-02-04T07:45:02.765Z,2.6
2023-02-04T08:00:03.012Z,3.0
2023-02-04T08:15:02.430Z,3.4
2023-02-04T08:30:02.885Z,3.7
2023-02-04T08:45:02.310Z,4.0
2023-02-04T09:00:02.808Z,4.1
2023-02-04T09:15:03.224Z,4.3
2023-02-04T09:30:02.811Z,5.3
2023-02-04T09:45:03.111Z,5.6
2023-02-04T10:00:02.528Z,5.8
2023-02-04T10:15:02.943Z,5.8
2023-02-04T10:30:02.384Z,6.2
2023-02-04T10:45:02.828Z,6.4
2023-02-04T11:00:03.245Z,6.4
2023-02-04T11:15:02.831Z,6.5
2023-02-04T11:30:02.121Z,6.9
2023-02-04T11:45:02.574Z,6.9
2023-02-04T12:00:03.020Z,6.7
2023-02-04T12:15:02.453Z,7.0
2023-02-04T12:30:02.878Z,8.0
2023-02-04T12:45:02.312Z,9.7
2023-02-04T13:00:02.897Z,10.2
2023-02-04T13:15:02.151Z,10.0
2023-02-04T13:30:02.613Z,9.0
2023-02-04T13:45:03.065Z,8.5
2023-02-04T14:00:02.518Z,7.9
2023-02-04T14:15:02.958Z,7.4
2023-02-04T14:30:02.351Z,6.9
2023-02-04T14:45:02.910Z,6.6
2023-02-04T15:00:02.238Z,6.4
2023-02-04T15:15:02.905Z,6.2
2023-02-04T15:30:02.187Z,6.0
2023-02-04T15:45:02.557Z,5.8
2023-02-04T16:00:03.013Z,5.7
2023-02-04T16:15:02.454Z,5.4
2023-02-04T16:30:03.046Z,4.9
2023-02-04T16:45:02.316Z,4.4
2023-02-04T17:00:02.931Z,3.8
2023-02-04T17:15:02.199Z,3.3
2023-02-04T17:30:02.667Z,2.8
2023-02-04T17:45:03.080Z,2.2
2023-02-04T18:00:02.516Z,1.7
2023-02-04T18:15:02.966Z,1.2
2023-02-04T18:30:02.406Z,0.9
2023-02-04T18:45:02.955Z,0.6
2023-02-04T19:00:02.327Z,0.3
2023-02-04T19:15:02.709Z,0.1
2023-02-04T19:30:03.154Z,0.0
2023-02-04T19:45:02.606Z,-0.1
2023-02-04T20:00:03.039Z,-0.2
2023-02-04T20:15:02.490Z,-0.5
2023-02-04T20:30:02.991Z,-0.7
2023-02-04T20:45:02.377Z,-0.8
2023-02-04T21:00:02.990Z,-0.8
2023-02-04T21:15:02.243Z,-1.0
2023-02-04T21:30:02.748Z,-1.2
2023-02-04T21:45:03.138Z,-1.5
2023-02-04T22:00:02.559Z,-1.5
2023-02-04T22:15:04.386Z,-1.7
2023-02-04T22:30:03.481Z,-1.9
2023-02-04T22:45:03.030Z,-1.9
2023-02-04T23:00:02.340Z,-1.8
2023-02-04T23:30:02.242Z,-1.8
2023-02-04T23:45:02.658Z,-1.8
